sensor_id;sensor_type;location;lat;lon;timestamp;temperature;humidity
2825;DHT22;1420;51.324;12.344;2023-06-05T00:00:39;14.70;40.60
2825;DHT22;1420;51.324;12.344;2023-06-05T00:03:06;14.70;40.70
2825;DHT22;1420;51.324;12.344;2023-06-05T00:05:33;14.60;40.80
2825;DHT22;1420;51.324;12.344;2023-06-05T00:08:00;14.70;40.90
2825;DHT22;1420;51.324;12.344;2023-06-05T00:10:28;14.60;41.10
2825;DHT22;1420;51.324;12.344;2023-06-05T00:12:55;14.60;41.30
2825;DHT22;1420;51.324;12.344;2023-06-05T00:15:23;14.50;41.30
2825;DHT22;1420;51.324;12.344;2023-06-05T00:17:50;14.50;41.20
2825;DHT22;1420;51.324;12.344;2023-06-05T00:20:17;14.40;41.30
2825;DHT22;1420;51.324;12.344;2023-06-05T00:22:44;14.50;41.40
2825;DHT22;1420;51.324;12.344;2023-06-05T00:25:12;14.30;42.20
2825;DHT22;1420;51.324;12.344;2023-06-05T00:27:39;14.30;41.90
2825;DHT22;1420;51.324;12.344;2023-06-05T00:30:07;14.10;42.10
2825;DHT22;1420;51.324;12.344;2023-06-05T00:32:34;14.00;42.40
2825;DHT22;1420;51.324;12.344;2023-06-05T00:35:03;14.10;42.40
2825;DHT22;1420;51.324;12.344;2023-06-05T00:37:30;14.10;42.30
2825;DHT22;1420;51.324;12.344;2023-06-05T00:39:57;14.10;42.60
2825;DHT22;1420;51.324;12.344;2023-06-05T00:42:25;14.00;43.00
2825;DHT22;1420;51.324;12.344;2023-06-05T00:44:53;13.90;43.00
2825;DHT22;1420;51.324;12.344;2023-06-05T00:47:21;14.00;43.00
2825;DHT22;1420;51.324;12.344;2023-06-05T00:49:49;13.90;44.00
2825;DHT22;1420;51.324;12.344;2023-06-05T00:52:16;13.80;43.80
2825;DHT22;1420;51.324;12.344;2023-06-05T00:54:43;13.70;43.90
2825;DHT22;1420;51.324;12.344;2023-06-05T00:57:10;13.60;44.30
2825;DHT22;1420;51.324;12.344;2023-06-05T00:59:37;13.50;44.80
2825;DHT22;1420;51.324;12.344;2023-06-05T01:02:05;13.50;45.20
2825;DHT22;1420;51.324;12.344;2023-06-05T01:04:32;13.60;45.00
2825;DHT22;1420;51.324;12.344;2023-06-05T01:07:00;13.60;45.30
2825;DHT22;1420;51.324;12.344;2023-06-05T01:09:27;13.60;45.30
2825;DHT22;1420;51.324;12.344;2023-06-05T01:11:58;13.60;45.00
2825;DHT22;1420;51.324;12.344;2023-06-05T01:14:27;13.70;45.20
2825;DHT22;1420;51.324;12.344;2023-06-05T01:16:53;13.70;45.40
2825;DHT22;1420;51.324;12.344;2023-06-05T01:19:21;13.50;45.50
2825;DHT22;1420;51.324;12.344;2023-06-05T01:21:48;13.50;45.70
2825;DHT22;1420;51.324;12.344;2023-06-05T01:24:15;13.50;46.20
2825;DHT22;1420;51.324;12.344;2023-06-05T01:26:50;13.50;46.00
2825;DHT22;1420;51.324;12.344;2023-06-05T01:29:13;13.50;46.10
2825;DHT22;1420;51.324;12.344;2023-06-05T01:31:41;13.30;46.90
2825;DHT22;1420;51.324;12.344;2023-06-05T01:34:08;13.20;47.10
2825;DHT22;1420;51.324;12.344;2023-06-05T01:36:35;13.30;46.90
2825;DHT22;1420;51.324;12.344;2023-06-05T01:39:02;13.40;47.30
2825;DHT22;1420;51.324;12.344;2023-06-05T01:41:29;13.30;47.50
2825;DHT22;1420;51.324;12.344;2023-06-05T01:43:57;13.40;47.90
2825;DHT22;1420;51.324;12.344;2023-06-05T01:46:24;13.30;48.10
2825;DHT22;1420;51.324;12.344;2023-06-05T01:48:51;13.30;48.20
2825;DHT22;1420;51.324;12.344;2023-06-05T01:51:18;13.10;48.70
2825;DHT22;1420;51.324;12.344;2023-06-05T01:53:46;13.30;49.10
2825;DHT22;1420;51.324;12.344;2023-06-05T01:56:14;13.20;48.90
2825;DHT22;1420;51.324;12.344;2023-06-05T01:58:41;13.20;49.60
2825;DHT22;1420;51.324;12.344;2023-06-05T02:01:08;13.20;50.40
2825;DHT22;1420;51.324;12.344;2023-06-05T02:03:35;13.30;50.50
2825;DHT22;1420;51.324;12.344;2023-06-05T02:06:02;13.20;51.40
2825;DHT22;1420;51.324;12.344;2023-06-05T02:08:30;13.20;52.20
2825;DHT22;1420;51.324;12.344;2023-06-05T02:10:57;13.20;53.00
2825;DHT22;1420;51.324;12.344;2023-06-05T02:13:24;13.10;53.30
2825;DHT22;1420;51.324;12.344;2023-06-05T02:15:51;13.00;53.60
2825;DHT22;1420;51.324;12.344;2023-06-05T02:18:18;12.90;54.10
2825;DHT22;1420;51.324;12.344;2023-06-05T02:20:52;12.80;54.60
2825;DHT22;1420;51.324;12.344;2023-06-05T02:23:13;12.80;53.90
2825;DHT22;1420;51.324;12.344;2023-06-05T02:25:40;12.70;54.10
2825;DHT22;1420;51.324;12.344;2023-06-05T02:28:07;12.60;54.30
2825;DHT22;1420;51.324;12.344;2023-06-05T02:30:35;12.40;54.70
2825;DHT22;1420;51.324;12.344;2023-06-05T02:33:03;12.30;54.40
2825;DHT22;1420;51.324;12.344;2023-06-05T02:35:30;12.50;54.40
2825;DHT22;1420;51.324;12.344;2023-06-05T02:37:57;12.60;54.70
2825;DHT22;1420;51.324;12.344;2023-06-05T02:40:24;12.40;54.80
2825;DHT22;1420;51.324;12.344;2023-06-05T02:42:52;12.30;55.50
2825;DHT22;1420;51.324;12.344;2023-06-05T02:45:20;12.40;55.60
2825;DHT22;1420;51.324;12.344;2023-06-05T02:47:48;12.30;55.40
2825;DHT22;1420;51.324;12.344;2023-06-05T02:50:15;12.30;55.40
2825;DHT22;1420;51.324;12.344;2023-06-05T02:52:43;12.50;55.90
2825;DHT22;1420;51.324;12.344;2023-06-05T02:55:11;12.50;55.70
2825;DHT22;1420;51.324;12.344;2023-06-05T02:57:39;12.50;55.60
2825;DHT22;1420;51.324;12.344;2023-06-05T03:00:09;12.30;56.50
2825;DHT22;1420;51.324;12.344;2023-06-05T03:02:36;12.40;57.30
2825;DHT22;1420;51.324;12.344;2023-06-05T03:05:03;12.30;58.00
2825;DHT22;1420;51.324;12.344;2023-06-05T03:07:30;12.10;58.70
2825;DHT22;1420;51.324;12.344;2023-06-05T03:09:58;11.90;60.00
2825;DHT22;1420;51.324;12.344;2023-06-05T03:12:26;11.60;63.40
2825;DHT22;1420;51.324;12.344;2023-06-05T03:14:53;11.60;63.40
2825;DHT22;1420;51.324;12.344;2023-06-05T03:17:20;11.50;65.10
2825;DHT22;1420;51.324;12.344;2023-06-05T03:19:47;11.40;67.20
2825;DHT22;1420;51.324;12.344;2023-06-05T03:22:15;11.40;68.20
2825;DHT22;1420;51.324;12.344;2023-06-05T03:24:42;11.30;68.90
2825;DHT22;1420;51.324;12.344;2023-06-05T03:27:09;11.30;68.90
2825;DHT22;1420;51.324;12.344;2023-06-05T03:29:36;11.40;68.70
2825;DHT22;1420;51.324;12.344;2023-06-05T03:32:04;11.40;71.90
2825;DHT22;1420;51.324;12.344;2023-06-05T03:34:32;11.40;71.60
2825;DHT22;1420;51.324;12.344;2023-06-05T03:36:59;11.40;71.50
2825;DHT22;1420;51.324;12.344;2023-06-05T03:39:27;11.50;72.20
2825;DHT22;1420;51.324;12.344;2023-06-05T03:41:55;11.50;72.10
2825;DHT22;1420;51.324;12.344;2023-06-05T03:44:22;11.50;70.70
2825;DHT22;1420;51.324;12.344;2023-06-05T03:46:49;11.50;73.60
2825;DHT22;1420;51.324;12.344;2023-06-05T03:49:16;11.40;82.30
2825;DHT22;1420;51.324;12.344;2023-06-05T03:51:44;11.40;89.90
2825;DHT22;1420;51.324;12.344;2023-06-05T03:54:11;11.50;95.30
2825;DHT22;1420;51.324;12.344;2023-06-05T03:56:38;11.40;98.80
2825;DHT22;1420;51.324;12.344;2023-06-05T03:59:06;11.40;99.90
2825;DHT22;1420;51.324;12.344;2023-06-05T04:01:36;11.40;99.90
2825;DHT22;1420;51.324;12.344;2023-06-05T04:04:04;11.50;99.90
2825;DHT22;1420;51.324;12.344;2023-06-05T04:06:33;11.50;99.90
2825;DHT22;1420;51.324;12.344;2023-06-05T04:09:00;11.50;99.90
2825;DHT22;1420;51.324;12.344;2023-06-05T04:11:28;11.60;99.90
2825;DHT22;1420;51.324;12.344;2023-06-05T04:13:55;11.70;99.90
2825;DHT22;1420;51.324;12.344;2023-06-05T04:16:22;11.70;99.90
2825;DHT22;1420;51.324;12.344;2023-06-05T04:18:50;11.70;99.90
2825;DHT22;1420;51.324;12.344;2023-06-05T04:21:18;11.50;99.90
2825;DHT22;1420;51.324;12.344;2023-06-05T04:23:46;11.50;99.90
2825;DHT22;1420;51.324;12.344;2023-06-05T04:26:13;11.50;99.90
2825;DHT22;1420;51.324;12.344;2023-06-05T04:28:40;11.60;99.90
2825;DHT22;1420;51.324;12.344;2023-06-05T04:31:08;11.50;99.90
2825;DHT22;1420;51.324;12.344;2023-06-05T04:33:36;11.70;99.90
2825;DHT22;1420;51.324;12.344;2023-06-05T04:36:04;11.70;99.90
2825;DHT22;1420;51.324;12.344;2023-06-05T04:38:32;11.90;99.90
2825;DHT22;1420;51.324;12.344;2023-06-05T04:41:00;12.10;99.90
2825;DHT22;1420;51.324;12.344;2023-06-05T04:43:27;12.00;99.90
2825;DHT22;1420;51.324;12.344;2023-06-05T04:45:57;12.20;99.90
2825;DHT22;1420;51.324;12.344;2023-06-05T04:48:24;12.30;99.80
2825;DHT22;1420;51.324;12.344;2023-06-05T04:50:51;12.40;99.90
2825;DHT22;1420;51.324;12.344;2023-06-05T04:53:19;12.50;98.30
2825;DHT22;1420;51.324;12.344;2023-06-05T04:55:46;12.60;98.80
2825;DHT22;1420;51.324;12.344;2023-06-05T04:58:13;12.80;99.90
2825;DHT22;1420;51.324;12.344;2023-06-05T05:00:40;13.00;94.70
2825;DHT22;1420;51.324;12.344;2023-06-05T05:03:07;13.10;94.20
2825;DHT22;1420;51.324;12.344;2023-06-05T05:05:35;13.50;92.80
2825;DHT22;1420;51.324;12.344;2023-06-05T05:08:02;13.60;89.60
2825;DHT22;1420;51.324;12.344;2023-06-05T05:10:29;13.70;88.10
2825;DHT22;1420;51.324;12.344;2023-06-05T05:12:56;13.80;84.60
2825;DHT22;1420;51.324;12.344;2023-06-05T05:15:24;13.80;83.60
2825;DHT22;1420;51.324;12.344;2023-06-05T05:17:51;13.90;84.30
2825;DHT22;1420;51.324;12.344;2023-06-05T05:20:18;13.90;82.20
2825;DHT22;1420;51.324;12.344;2023-06-05T05:22:45;13.90;79.20
2825;DHT22;1420;51.324;12.344;2023-06-05T05:25:13;14.30;81.90
2825;DHT22;1420;51.324;12.344;2023-06-05T05:27:41;14.30;82.10
2825;DHT22;1420;51.324;12.344;2023-06-05T05:30:08;14.60;74.10
2825;DHT22;1420;51.324;12.344;2023-06-05T05:32:36;14.60;73.40
2825;DHT22;1420;51.324;12.344;2023-06-05T05:35:03;14.60;74.60
2825;DHT22;1420;51.324;12.344;2023-06-05T05:37:30;15.00;70.00
2825;DHT22;1420;51.324;12.344;2023-06-05T05:39:58;15.00;68.30
2825;DHT22;1420;51.324;12.344;2023-06-05T05:42:26;15.00;68.30
2825;DHT22;1420;51.324;12.344;2023-06-05T05:44:53;15.10;65.60
2825;DHT22;1420;51.324;12.344;2023-06-05T05:47:20;15.40;63.40
2825;DHT22;1420;51.324;12.344;2023-06-05T05:49:47;15.80;61.50
2825;DHT22;1420;51.324;12.344;2023-06-05T05:52:14;16.30;58.50
2825;DHT22;1420;51.324;12.344;2023-06-05T05:54:42;17.10;56.60
2825;DHT22;1420;51.324;12.344;2023-06-05T05:57:10;17.60;52.40
2825;DHT22;1420;51.324;12.344;2023-06-05T05:59:37;17.60;52.40
2825;DHT22;1420;51.324;12.344;2023-06-05T06:02:04;18.50;51.10
2825;DHT22;1420;51.324;12.344;2023-06-05T06:04:31;19.00;48.90
2825;DHT22;1420;51.324;12.344;2023-06-05T06:06:59;19.40;47.50
2825;DHT22;1420;51.324;12.344;2023-06-05T06:09:26;19.60;46.50
2825;DHT22;1420;51.324;12.344;2023-06-05T06:11:53;19.50;46.50
2825;DHT22;1420;51.324;12.344;2023-06-05T06:14:22;20.50;45.90
2825;DHT22;1420;51.324;12.344;2023-06-05T06:16:50;21.10;42.70
2825;DHT22;1420;51.324;12.344;2023-06-05T06:19:17;21.00;42.60
2825;DHT22;1420;51.324;12.344;2023-06-05T06:21:44;20.90;42.40
2825;DHT22;1420;51.324;12.344;2023-06-05T06:24:11;20.40;43.40
2825;DHT22;1420;51.324;12.344;2023-06-05T06:26:39;21.10;40.70
2825;DHT22;1420;51.324;12.344;2023-06-05T06:29:06;21.00;40.50
2825;DHT22;1420;51.324;12.344;2023-06-05T06:31:33;21.00;40.60
2825;DHT22;1420;51.324;12.344;2023-06-05T06:34:01;20.70;40.40
2825;DHT22;1420;51.324;12.344;2023-06-05T06:36:28;20.70;40.30
2825;DHT22;1420;51.324;12.344;2023-06-05T06:38:56;20.80;40.90
2825;DHT22;1420;51.324;12.344;2023-06-05T06:41:23;19.90;42.80
2825;DHT22;1420;51.324;12.344;2023-06-05T06:43:50;19.90;43.10
2825;DHT22;1420;51.324;12.344;2023-06-05T06:46:17;19.60;43.20
2825;DHT22;1420;51.324;12.344;2023-06-05T06:48:44;19.50;43.50
2825;DHT22;1420;51.324;12.344;2023-06-05T06:51:12;19.90;43.40
2825;DHT22;1420;51.324;12.344;2023-06-05T06:53:39;20.40;42.50
2825;DHT22;1420;51.324;12.344;2023-06-05T06:56:06;20.40;42.30
2825;DHT22;1420;51.324;12.344;2023-06-05T06:58:35;20.80;42.30
2825;DHT22;1420;51.324;12.344;2023-06-05T07:01:02;20.70;42.20
2825;DHT22;1420;51.324;12.344;2023-06-05T07:03:29;21.00;42.10
2825;DHT22;1420;51.324;12.344;2023-06-05T07:05:56;21.30;40.90
2825;DHT22;1420;51.324;12.344;2023-06-05T07:08:23;21.90;40.30
2825;DHT22;1420;51.324;12.344;2023-06-05T07:10:50;22.50;39.70
2825;DHT22;1420;51.324;12.344;2023-06-05T07:13:17;22.80;38.30
2825;DHT22;1420;51.324;12.344;2023-06-05T07:15:46;22.40;39.50
2825;DHT22;1420;51.324;12.344;2023-06-05T07:18:13;22.40;39.40
2825;DHT22;1420;51.324;12.344;2023-06-05T07:20:40;23.00;38.00
2825;DHT22;1420;51.324;12.344;2023-06-05T07:23:07;22.10;37.90
2825;DHT22;1420;51.324;12.344;2023-06-05T07:25:34;22.30;39.00
2825;DHT22;1420;51.324;12.344;2023-06-05T07:28:02;21.80;39.90
2825;DHT22;1420;51.324;12.344;2023-06-05T07:30:29;22.40;39.20
2825;DHT22;1420;51.324;12.344;2023-06-05T07:32:57;23.10;38.10
2825;DHT22;1420;51.324;12.344;2023-06-05T07:35:24;23.10;38.10
2825;DHT22;1420;51.324;12.344;2023-06-05T07:37:51;23.90;36.30
2825;DHT22;1420;51.324;12.344;2023-06-05T07:40:18;24.20;35.70
2825;DHT22;1420;51.324;12.344;2023-06-05T07:42:46;23.90;36.00
2825;DHT22;1420;51.324;12.344;2023-06-05T07:45:13;23.50;36.20
2825;DHT22;1420;51.324;12.344;2023-06-05T07:47:40;23.50;36.00
2825;DHT22;1420;51.324;12.344;2023-06-05T07:50:07;22.80;37.70
2825;DHT22;1420;51.324;12.344;2023-06-05T07:52:35;21.90;38.50
2825;DHT22;1420;51.324;12.344;2023-06-05T07:55:02;21.60;39.00
2825;DHT22;1420;51.324;12.344;2023-06-05T07:57:30;21.50;39.70
2825;DHT22;1420;51.324;12.344;2023-06-05T07:59:58;21.50;39.80
2825;DHT22;1420;51.324;12.344;2023-06-05T08:02:25;21.40;39.80
2825;DHT22;1420;51.324;12.344;2023-06-05T08:04:52;21.90;40.10
2825;DHT22;1420;51.324;12.344;2023-06-05T08:07:20;22.30;39.50
2825;DHT22;1420;51.324;12.344;2023-06-05T08:09:47;22.40;39.00
2825;DHT22;1420;51.324;12.344;2023-06-05T08:12:14;22.00;38.50
2825;DHT22;1420;51.324;12.344;2023-06-05T08:14:41;21.60;39.50
2825;DHT22;1420;51.324;12.344;2023-06-05T08:17:09;21.50;40.70
2825;DHT22;1420;51.324;12.344;2023-06-05T08:19:36;21.50;40.60
2825;DHT22;1420;51.324;12.344;2023-06-05T08:22:04;21.30;40.80
2825;DHT22;1420;51.324;12.344;2023-06-05T08:24:31;21.50;40.70
2825;DHT22;1420;51.324;12.344;2023-06-05T08:26:58;22.30;39.50
2825;DHT22;1420;51.324;12.344;2023-06-05T08:29:25;23.40;38.30
2825;DHT22;1420;51.324;12.344;2023-06-05T08:31:53;24.00;36.70
2825;DHT22;1420;51.324;12.344;2023-06-05T08:34:21;24.80;34.80
2825;DHT22;1420;51.324;12.344;2023-06-05T08:36:48;24.80;34.80
2825;DHT22;1420;51.324;12.344;2023-06-05T08:39:15;24.80;34.40
2825;DHT22;1420;51.324;12.344;2023-06-05T08:41:42;25.10;34.70
2825;DHT22;1420;51.324;12.344;2023-06-05T08:44:12;25.30;33.10
2825;DHT22;1420;51.324;12.344;2023-06-05T08:46:38;25.20;32.20
2825;DHT22;1420;51.324;12.344;2023-06-05T08:49:07;25.20;32.60
2825;DHT22;1420;51.324;12.344;2023-06-05T08:51:34;26.10;31.80
2825;DHT22;1420;51.324;12.344;2023-06-05T08:54:02;26.10;31.70
2825;DHT22;1420;51.324;12.344;2023-06-05T08:56:28;25.40;31.30
2825;DHT22;1420;51.324;12.344;2023-06-05T08:58:55;24.80;32.30
2825;DHT22;1420;51.324;12.344;2023-06-05T09:01:23;25.60;32.00
2825;DHT22;1420;51.324;12.344;2023-06-05T09:03:50;25.50;31.80
2825;DHT22;1420;51.324;12.344;2023-06-05T09:06:18;25.80;31.20
2825;DHT22;1420;51.324;12.344;2023-06-05T09:08:45;26.10;30.90
2825;DHT22;1420;51.324;12.344;2023-06-05T09:11:24;26.30;30.20
2825;DHT22;1420;51.324;12.344;2023-06-05T09:13:51;25.30;30.50
2825;DHT22;1420;51.324;12.344;2023-06-05T09:16:19;24.90;30.50
2825;DHT22;1420;51.324;12.344;2023-06-05T09:18:52;24.70;31.20
2825;DHT22;1420;51.324;12.344;2023-06-05T09:21:19;24.70;31.00
2825;DHT22;1420;51.324;12.344;2023-06-05T09:23:46;25.10;30.70
2825;DHT22;1420;51.324;12.344;2023-06-05T09:26:13;25.30;30.00
2825;DHT22;1420;51.324;12.344;2023-06-05T09:28:52;25.10;30.20
2825;DHT22;1420;51.324;12.344;2023-06-05T09:31:17;25.60;30.30
2825;DHT22;1420;51.324;12.344;2023-06-05T09:33:45;25.40;30.30
2825;DHT22;1420;51.324;12.344;2023-06-05T09:36:12;25.50;30.20
2825;DHT22;1420;51.324;12.344;2023-06-05T09:38:39;25.20;29.20
2825;DHT22;1420;51.324;12.344;2023-06-05T09:41:09;25.00;29.70
2825;DHT22;1420;51.324;12.344;2023-06-05T09:43:35;25.20;30.20
2825;DHT22;1420;51.324;12.344;2023-06-05T09:46:08;25.40;29.80
2825;DHT22;1420;51.324;12.344;2023-06-05T09:48:34;25.50;29.50
2825;DHT22;1420;51.324;12.344;2023-06-05T09:51:08;25.30;30.00
2825;DHT22;1420;51.324;12.344;2023-06-05T09:53:36;25.70;30.80
2825;DHT22;1420;51.324;12.344;2023-06-05T09:56:03;25.60;28.80
2825;DHT22;1420;51.324;12.344;2023-06-05T09:58:30;25.50;28.70
2825;DHT22;1420;51.324;12.344;2023-06-05T10:00:58;25.60;29.60
2825;DHT22;1420;51.324;12.344;2023-06-05T10:03:25;25.90;28.50
2825;DHT22;1420;51.324;12.344;2023-06-05T10:05:53;24.60;28.20
2825;DHT22;1420;51.324;12.344;2023-06-05T10:08:20;24.60;28.20
2825;DHT22;1420;51.324;12.344;2023-06-05T10:10:47;24.10;29.00
2825;DHT22;1420;51.324;12.344;2023-06-05T10:13:15;23.90;29.00
2825;DHT22;1420;51.324;12.344;2023-06-05T10:15:44;24.00;29.40
2825;DHT22;1420;51.324;12.344;2023-06-05T10:18:12;24.60;28.50
2825;DHT22;1420;51.324;12.344;2023-06-05T10:20:39;24.60;28.50
2825;DHT22;1420;51.324;12.344;2023-06-05T10:23:06;24.60;28.80
2825;DHT22;1420;51.324;12.344;2023-06-05T10:25:33;24.80;28.40
2825;DHT22;1420;51.324;12.344;2023-06-05T10:28:10;25.50;27.70
2825;DHT22;1420;51.324;12.344;2023-06-05T10:33:11;26.00;26.90
2825;DHT22;1420;51.324;12.344;2023-06-05T10:35:51;26.90;26.70
2825;DHT22;1420;51.324;12.344;2023-06-05T10:40:56;26.80;26.10
2825;DHT22;1420;51.324;12.344;2023-06-05T10:43:45;27.00;26.40
2825;DHT22;1420;51.324;12.344;2023-06-05T10:51:31;27.20;26.00
2825;DHT22;1420;51.324;12.344;2023-06-05T10:53:58;27.20;26.60
2825;DHT22;1420;51.324;12.344;2023-06-05T10:56:52;26.60;25.90
2825;DHT22;1420;51.324;12.344;2023-06-05T10:59:19;26.50;25.80
2825;DHT22;1420;51.324;12.344;2023-06-05T11:04:31;27.00;26.20
2825;DHT22;1420;51.324;12.344;2023-06-05T11:07:36;26.80;26.00
2825;DHT22;1420;51.324;12.344;2023-06-05T11:10:05;26.20;26.80
2825;DHT22;1420;51.324;12.344;2023-06-05T11:12:55;26.70;26.50
2825;DHT22;1420;51.324;12.344;2023-06-05T11:15:37;26.70;27.10
2825;DHT22;1420;51.324;12.344;2023-06-05T11:20:51;26.40;27.30
2825;DHT22;1420;51.324;12.344;2023-06-05T11:23:19;25.90;27.70
2825;DHT22;1420;51.324;12.344;2023-06-05T11:25:47;25.90;27.70
2825;DHT22;1420;51.324;12.344;2023-06-05T11:28:14;26.40;27.70
2825;DHT22;1420;51.324;12.344;2023-06-05T11:30:42;26.80;26.50
2825;DHT22;1420;51.324;12.344;2023-06-05T11:33:09;26.50;26.90
2825;DHT22;1420;51.324;12.344;2023-06-05T11:35:35;26.40;26.90
2825;DHT22;1420;51.324;12.344;2023-06-05T11:38:18;26.00;27.20
2825;DHT22;1420;51.324;12.344;2023-06-05T11:40:45;25.80;27.20
2825;DHT22;1420;51.324;12.344;2023-06-05T11:43:13;26.20;27.30
2825;DHT22;1420;51.324;12.344;2023-06-05T11:45:41;26.30;27.30
2825;DHT22;1420;51.324;12.344;2023-06-05T11:48:10;26.90;27.50
2825;DHT22;1420;51.324;12.344;2023-06-05T11:50:37;26.80;26.20
2825;DHT22;1420;51.324;12.344;2023-06-05T11:53:09;26.20;27.00
2825;DHT22;1420;51.324;12.344;2023-06-05T11:55:36;26.20;26.90
2825;DHT22;1420;51.324;12.344;2023-06-05T11:58:09;26.00;27.70
2825;DHT22;1420;51.324;12.344;2023-06-05T12:00:36;25.90;27.40
2825;DHT22;1420;51.324;12.344;2023-06-05T12:03:03;26.00;27.20
2825;DHT22;1420;51.324;12.344;2023-06-05T12:05:30;25.90;27.40
2825;DHT22;1420;51.324;12.344;2023-06-05T12:08:18;26.10;27.00
2825;DHT22;1420;51.324;12.344;2023-06-05T12:10:33;26.10;27.00
2825;DHT22;1420;51.324;12.344;2023-06-05T12:13:00;26.60;27.00
2825;DHT22;1420;51.324;12.344;2023-06-05T12:15:27;26.50;26.90
2825;DHT22;1420;51.324;12.344;2023-06-05T12:17:56;26.90;26.90
2825;DHT22;1420;51.324;12.344;2023-06-05T12:20:25;27.00;26.70
2825;DHT22;1420;51.324;12.344;2023-06-05T12:22:52;26.90;26.60
2825;DHT22;1420;51.324;12.344;2023-06-05T12:25:20;27.30;26.90
2825;DHT22;1420;51.324;12.344;2023-06-05T12:27:47;27.50;26.60
2825;DHT22;1420;51.324;12.344;2023-06-05T12:30:14;27.70;26.20
2825;DHT22;1420;51.324;12.344;2023-06-05T12:32:41;27.20;25.40
2825;DHT22;1420;51.324;12.344;2023-06-05T12:35:24;27.20;26.50
2825;DHT22;1420;51.324;12.344;2023-06-05T12:37:50;27.30;26.30
2825;DHT22;1420;51.324;12.344;2023-06-05T12:40:18;27.50;26.60
2825;DHT22;1420;51.324;12.344;2023-06-05T12:42:45;27.30;26.50
2825;DHT22;1420;51.324;12.344;2023-06-05T12:45:12;27.30;27.00
2825;DHT22;1420;51.324;12.344;2023-06-05T12:47:39;27.50;26.70
2825;DHT22;1420;51.324;12.344;2023-06-05T12:50:07;27.60;26.20
2825;DHT22;1420;51.324;12.344;2023-06-05T12:52:34;26.80;26.30
2825;DHT22;1420;51.324;12.344;2023-06-05T12:55:01;26.80;26.50
2825;DHT22;1420;51.324;12.344;2023-06-05T12:57:30;26.60;26.80
2825;DHT22;1420;51.324;12.344;2023-06-05T12:59:56;26.50;26.70
2825;DHT22;1420;51.324;12.344;2023-06-05T13:02:24;26.40;27.00
2825;DHT22;1420;51.324;12.344;2023-06-05T13:04:51;26.20;27.30
2825;DHT22;1420;51.324;12.344;2023-06-05T13:07:18;26.00;27.40
2825;DHT22;1420;51.324;12.344;2023-06-05T13:09:45;25.80;27.60
2825;DHT22;1420;51.324;12.344;2023-06-05T13:12:12;25.70;27.90
2825;DHT22;1420;51.324;12.344;2023-06-05T13:14:40;25.90;27.90
2825;DHT22;1420;51.324;12.344;2023-06-05T13:17:07;25.80;27.70
2825;DHT22;1420;51.324;12.344;2023-06-05T13:19:34;25.60;28.20
2825;DHT22;1420;51.324;12.344;2023-06-05T13:22:02;25.70;28.20
2825;DHT22;1420;51.324;12.344;2023-06-05T13:24:29;25.70;28.10
2825;DHT22;1420;51.324;12.344;2023-06-05T13:26:56;25.50;28.60
2825;DHT22;1420;51.324;12.344;2023-06-05T13:29:24;25.40;28.30
2825;DHT22;1420;51.324;12.344;2023-06-05T13:31:52;25.50;28.20
2825;DHT22;1420;51.324;12.344;2023-06-05T13:34:19;25.50;28.20
2825;DHT22;1420;51.324;12.344;2023-06-05T13:36:46;25.70;28.70
2825;DHT22;1420;51.324;12.344;2023-06-05T13:39:14;26.00;27.70
2825;DHT22;1420;51.324;12.344;2023-06-05T13:41:41;26.10;27.30
2825;DHT22;1420;51.324;12.344;2023-06-05T13:44:09;26.30;27.30
2825;DHT22;1420;51.324;12.344;2023-06-05T13:46:36;26.20;27.20
2825;DHT22;1420;51.324;12.344;2023-06-05T13:49:03;26.40;26.90
2825;DHT22;1420;51.324;12.344;2023-06-05T13:51:30;26.40;27.20
2825;DHT22;1420;51.324;12.344;2023-06-05T13:53:58;26.10;26.60
2825;DHT22;1420;51.324;12.344;2023-06-05T13:56:25;26.10;26.60
2825;DHT22;1420;51.324;12.344;2023-06-05T13:58:53;25.90;27.00
2825;DHT22;1420;51.324;12.344;2023-06-05T14:01:20;25.90;26.30
2825;DHT22;1420;51.324;12.344;2023-06-05T14:03:47;25.90;27.00
2825;DHT22;1420;51.324;12.344;2023-06-05T14:06:15;26.10;27.10
2825;DHT22;1420;51.324;12.344;2023-06-05T14:08:41;25.90;26.50
2825;DHT22;1420;51.324;12.344;2023-06-05T14:11:09;25.70;26.80
2825;DHT22;1420;51.324;12.344;2023-06-05T14:13:37;25.80;26.80
2825;DHT22;1420;51.324;12.344;2023-06-05T14:16:05;25.70;26.70
2825;DHT22;1420;51.324;12.344;2023-06-05T14:18:32;25.80;27.00
2825;DHT22;1420;51.324;12.344;2023-06-05T14:20:59;25.90;25.80
2825;DHT22;1420;51.324;12.344;2023-06-05T14:23:26;26.10;26.20
2825;DHT22;1420;51.324;12.344;2023-06-05T14:25:54;26.20;26.00
2825;DHT22;1420;51.324;12.344;2023-06-05T14:28:22;26.30;26.80
2825;DHT22;1420;51.324;12.344;2023-06-05T14:30:49;26.20;26.70
2825;DHT22;1420;51.324;12.344;2023-06-05T14:33:16;26.20;26.20
2825;DHT22;1420;51.324;12.344;2023-06-05T14:35:43;26.30;26.40
2825;DHT22;1420;51.324;12.344;2023-06-05T14:38:10;26.20;26.70
2825;DHT22;1420;51.324;12.344;2023-06-05T14:40:39;26.30;27.00
2825;DHT22;1420;51.324;12.344;2023-06-05T14:43:06;26.10;27.00
2825;DHT22;1420;51.324;12.344;2023-06-05T14:45:33;26.50;26.40
2825;DHT22;1420;51.324;12.344;2023-06-05T14:48:00;26.30;26.40
2825;DHT22;1420;51.324;12.344;2023-06-05T14:50:27;26.30;26.60
2825;DHT22;1420;51.324;12.344;2023-06-05T14:52:55;26.30;25.70
2825;DHT22;1420;51.324;12.344;2023-06-05T14:55:23;26.20;26.00
2825;DHT22;1420;51.324;12.344;2023-06-05T14:57:50;26.10;25.90
2825;DHT22;1420;51.324;12.344;2023-06-05T15:00:17;26.40;26.00
2825;DHT22;1420;51.324;12.344;2023-06-05T15:02:44;26.60;25.90
2825;DHT22;1420;51.324;12.344;2023-06-05T15:05:12;26.60;25.70
2825;DHT22;1420;51.324;12.344;2023-06-05T15:07:39;26.50;25.90
2825;DHT22;1420;51.324;12.344;2023-06-05T15:10:07;26.50;26.00
2825;DHT22;1420;51.324;12.344;2023-06-05T15:12:34;26.50;25.80
2825;DHT22;1420;51.324;12.344;2023-06-05T15:15:01;26.30;26.00
2825;DHT22;1420;51.324;12.344;2023-06-05T15:17:28;26.00;26.30
2825;DHT22;1420;51.324;12.344;2023-06-05T15:19:55;25.80;26.00
2825;DHT22;1420;51.324;12.344;2023-06-05T15:22:23;25.60;26.60
2825;DHT22;1420;51.324;12.344;2023-06-05T15:24:51;25.60;27.30
2825;DHT22;1420;51.324;12.344;2023-06-05T15:27:18;25.50;27.20
2825;DHT22;1420;51.324;12.344;2023-06-05T15:29:45;25.70;27.10
2825;DHT22;1420;51.324;12.344;2023-06-05T15:32:12;26.10;27.20
2825;DHT22;1420;51.324;12.344;2023-06-05T15:34:40;26.40;26.00
2825;DHT22;1420;51.324;12.344;2023-06-05T15:37:07;26.10;25.80
2825;DHT22;1420;51.324;12.344;2023-06-05T15:39:34;26.20;26.20
2825;DHT22;1420;51.324;12.344;2023-06-05T15:42:02;26.10;26.20
2825;DHT22;1420;51.324;12.344;2023-06-05T15:44:29;26.10;26.20
2825;DHT22;1420;51.324;12.344;2023-06-05T15:46:56;26.10;25.70
2825;DHT22;1420;51.324;12.344;2023-06-05T15:49:24;26.40;25.40
2825;DHT22;1420;51.324;12.344;2023-06-05T15:51:52;26.40;25.30
2825;DHT22;1420;51.324;12.344;2023-06-05T15:54:19;26.20;25.20
2825;DHT22;1420;51.324;12.344;2023-06-05T15:59:25;26.40;26.40
2825;DHT22;1420;51.324;12.344;2023-06-05T16:01:52;26.20;26.30
2825;DHT22;1420;51.324;12.344;2023-06-05T16:04:21;25.70;26.30
2825;DHT22;1420;51.324;12.344;2023-06-05T16:06:48;25.70;26.20